sensor_id;sensor_type;location;lat;lon;timestamp;P1;durP1;ratioP1;P2;durP2;ratioP2
8331;SDS011;4203;48.144;14.118;2022-09-09T00:00:55;3.80;;;1.90;;
8331;SDS011;4203;48.144;14.118;2022-09-09T00:03:35;2.47;;;1.88;;
8331;SDS011;4203;48.144;14.118;2022-09-09T00:06:11;2.83;;;2.00;;
8331;SDS011;4203;48.144;14.118;2022-09-09T00:08:50;2.17;;;2.00;;
8331;SDS011;4203;48.144;14.118;2022-09-09T00:11:26;2.22;;;1.85;;
8331;SDS011;4203;48.144;14.118;2022-09-09T00:13:59;6.07;;;2.30;;
8331;SDS011;4203;48.144;14.118;2022-09-09T00:16:32;1.80;;;1.70;;
8331;SDS011;4203;48.144;14.118;2022-09-09T00:19:07;2.47;;;2.13;;
8331;SDS011;4203;48.144;14.118;2022-09-09T00:21:43;3.97;;;1.88;;
8331;SDS011;4203;48.144;14.118;2022-09-09T00:24:23;5.50;;;2.20;;
8331;SDS011;4203;48.144;14.118;2022-09-09T00:26:55;2.30;;;1.85;;
8331;SDS011;4203;48.144;14.118;2022-09-09T00:29:28;3.17;;;2.30;;
8331;SDS011;4203;48.144;14.118;2022-09-09T00:32:09;2.10;;;1.88;;
8331;SDS011;4203;48.144;14.118;2022-09-09T00:34:46;2.65;;;2.10;;
8331;SDS011;4203;48.144;14.118;2022-09-09T00:37:14;2.00;;;1.90;;
8331;SDS011;4203;48.144;14.118;2022-09-09T00:39:44;4.60;;;2.28;;
8331;SDS011;4203;48.144;14.118;2022-09-09T00:42:14;4.78;;;1.65;;
8331;SDS011;4203;48.144;14.118;2022-09-09T00:44:51;2.42;;;1.73;;
8331;SDS011;4203;48.144;14.118;2022-09-09T00:47:40;5.13;;;2.30;;
8331;SDS011;4203;48.144;14.118;2022-09-09T00:53:15;4.82;;;2.50;;
8331;SDS011;4203;48.144;14.118;2022-09-09T00:55:57;4.70;;;1.90;;
8331;SDS011;4203;48.144;14.118;2022-09-09T00:58:34;4.88;;;2.20;;
8331;SDS011;4203;48.144;14.118;2022-09-09T01:01:02;4.32;;;2.08;;
8331;SDS011;4203;48.144;14.118;2022-09-09T01:03:37;5.65;;;2.10;;
8331;SDS011;4203;48.144;14.118;2022-09-09T01:06:14;2.97;;;1.80;;
8331;SDS011;4203;48.144;14.118;2022-09-09T01:09:04;3.92;;;1.98;;
8331;SDS011;4203;48.144;14.118;2022-09-09T01:11:42;2.67;;;2.30;;
8331;SDS011;4203;48.144;14.118;2022-09-09T01:14:20;2.38;;;1.92;;
8331;SDS011;4203;48.144;14.118;2022-09-09T01:16:58;5.63;;;2.22;;
8331;SDS011;4203;48.144;14.118;2022-09-09T01:19:36;1.98;;;1.88;;
8331;SDS011;4203;48.144;14.118;2022-09-09T01:22:11;2.50;;;1.88;;
8331;SDS011;4203;48.144;14.118;2022-09-09T01:24:49;3.22;;;1.85;;
8331;SDS011;4203;48.144;14.118;2022-09-09T01:27:41;2.95;;;2.05;;
8331;SDS011;4203;48.144;14.118;2022-09-09T01:30:11;3.42;;;2.05;;
8331;SDS011;4203;48.144;14.118;2022-09-09T01:32:42;5.35;;;1.70;;
8331;SDS011;4203;48.144;14.118;2022-09-09T01:35:11;4.05;;;2.33;;
8331;SDS011;4203;48.144;14.118;2022-09-09T01:37:54;3.65;;;1.73;;
8331;SDS011;4203;48.144;14.118;2022-09-09T01:40:21;2.28;;;1.80;;
8331;SDS011;4203;48.144;14.118;2022-09-09T01:42:50;4.40;;;2.30;;
8331;SDS011;4203;48.144;14.118;2022-09-09T01:45:18;3.60;;;1.95;;
8331;SDS011;4203;48.144;14.118;2022-09-09T01:47:46;6.05;;;2.30;;
8331;SDS011;4203;48.144;14.118;2022-09-09T01:50:14;4.18;;;1.90;;
8331;SDS011;4203;48.144;14.118;2022-09-09T01:52:42;4.53;;;2.10;;
8331;SDS011;4203;48.144;14.118;2022-09-09T01:55:12;4.82;;;2.15;;
8331;SDS011;4203;48.144;14.118;2022-09-09T01:57:41;2.78;;;1.90;;
8331;SDS011;4203;48.144;14.118;2022-09-09T02:00:15;5.70;;;2.10;;
8331;SDS011;4203;48.144;14.118;2022-09-09T02:02:44;7.28;;;2.42;;
8331;SDS011;4203;48.144;14.118;2022-09-09T02:05:24;4.63;;;2.20;;
8331;SDS011;4203;48.144;14.118;2022-09-09T02:08:00;4.57;;;2.20;;
8331;SDS011;4203;48.144;14.118;2022-09-09T02:10:33;2.75;;;2.55;;
8331;SDS011;4203;48.144;14.118;2022-09-09T02:13:08;3.95;;;2.08;;
8331;SDS011;4203;48.144;14.118;2022-09-09T02:15:41;3.05;;;2.10;;
8331;SDS011;4203;48.144;14.118;2022-09-09T02:18:11;2.08;;;1.98;;
8331;SDS011;4203;48.144;14.118;2022-09-09T02:20:42;2.25;;;1.90;;
8331;SDS011;4203;48.144;14.118;2022-09-09T02:23:10;2.17;;;2.08;;
8331;SDS011;4203;48.144;14.118;2022-09-09T02:25:39;19.50;;;3.67;;
8331;SDS011;4203;48.144;14.118;2022-09-09T02:28:08;16.50;;;3.85;;
8331;SDS011;4203;48.144;14.118;2022-09-09T02:30:38;11.80;;;2.88;;
8331;SDS011;4203;48.144;14.118;2022-09-09T02:33:12;11.77;;;3.47;;
8331;SDS011;4203;48.144;14.118;2022-09-09T02:35:41;6.95;;;3.35;;
8331;SDS011;4203;48.144;14.118;2022-09-09T02:38:12;7.47;;;3.55;;
8331;SDS011;4203;48.144;14.118;2022-09-09T02:40:41;7.97;;;3.47;;
8331;SDS011;4203;48.144;14.118;2022-09-09T02:43:08;9.18;;;3.83;;
8331;SDS011;4203;48.144;14.118;2022-09-09T02:45:37;23.00;;;4.15;;
8331;SDS011;4203;48.144;14.118;2022-09-09T02:48:09;24.60;;;4.60;;
8331;SDS011;4203;48.144;14.118;2022-09-09T02:50:43;18.73;;;3.60;;
8331;SDS011;4203;48.144;14.118;2022-09-09T02:53:22;14.82;;;3.28;;
8331;SDS011;4203;48.144;14.118;2022-09-09T02:55:55;39.70;;;4.30;;
8331;SDS011;4203;48.144;14.118;2022-09-09T02:58:25;37.30;;;5.53;;
8331;SDS011;4203;48.144;14.118;2022-09-09T03:00:54;40.05;;;6.18;;
8331;SDS011;4203;48.144;14.118;2022-09-09T03:03:22;17.83;;;4.72;;
8331;SDS011;4203;48.144;14.118;2022-09-09T03:05:50;17.05;;;3.60;;
8331;SDS011;4203;48.144;14.118;2022-09-09T03:08:17;10.90;;;3.50;;
8331;SDS011;4203;48.144;14.118;2022-09-09T03:10:44;7.63;;;3.20;;
8331;SDS011;4203;48.144;14.118;2022-09-09T03:13:12;14.65;;;3.90;;
8331;SDS011;4203;48.144;14.118;2022-09-09T03:15:40;5.93;;;3.42;;
8331;SDS011;4203;48.144;14.118;2022-09-09T03:18:08;5.07;;;3.50;;
8331;SDS011;4203;48.144;14.118;2022-09-09T03:20:36;3.83;;;3.50;;
8331;SDS011;4203;48.144;14.118;2022-09-09T03:23:03;3.70;;;3.40;;
8331;SDS011;4203;48.144;14.118;2022-09-09T03:25:30;5.25;;;3.15;;
8331;SDS011;4203;48.144;14.118;2022-09-09T03:27:58;3.38;;;3.10;;
8331;SDS011;4203;48.144;14.118;2022-09-09T03:30:26;4.43;;;3.55;;
8331;SDS011;4203;48.144;14.118;2022-09-09T03:32:54;4.00;;;3.35;;
8331;SDS011;4203;48.144;14.118;2022-09-09T03:35:23;5.10;;;3.90;;
8331;SDS011;4203;48.144;14.118;2022-09-09T03:37:50;6.50;;;4.03;;
8331;SDS011;4203;48.144;14.118;2022-09-09T03:40:17;10.27;;;4.15;;
8331;SDS011;4203;48.144;14.118;2022-09-09T03:42:45;8.32;;;3.60;;
8331;SDS011;4203;48.144;14.118;2022-09-09T03:45:13;5.13;;;3.15;;
8331;SDS011;4203;48.144;14.118;2022-09-09T03:47:41;11.00;;;3.63;;
8331;SDS011;4203;48.144;14.118;2022-09-09T03:50:09;14.77;;;4.05;;
8331;SDS011;4203;48.144;14.118;2022-09-09T03:52:38;21.35;;;4.70;;
8331;SDS011;4203;48.144;14.118;2022-09-09T03:55:07;12.32;;;3.75;;
8331;SDS011;4203;48.144;14.118;2022-09-09T03:57:35;6.53;;;3.50;;
8331;SDS011;4203;48.144;14.118;2022-09-09T04:00:02;6.68;;;3.85;;
8331;SDS011;4203;48.144;14.118;2022-09-09T04:02:30;5.82;;;3.83;;
8331;SDS011;4203;48.144;14.118;2022-09-09T04:04:57;4.03;;;3.70;;
8331;SDS011;4203;48.144;14.118;2022-09-09T04:07:24;5.35;;;3.55;;
8331;SDS011;4203;48.144;14.118;2022-09-09T04:09:54;3.63;;;3.33;;
8331;SDS011;4203;48.144;14.118;2022-09-09T04:12:21;3.30;;;3.00;;
8331;SDS011;4203;48.144;14.118;2022-09-09T04:14:48;5.03;;;3.85;;
8331;SDS011;4203;48.144;14.118;2022-09-09T04:17:15;5.18;;;3.45;;
8331;SDS011;4203;48.144;14.118;2022-09-09T04:19:43;3.88;;;3.47;;
8331;SDS011;4203;48.144;14.118;2022-09-09T04:22:10;3.53;;;3.33;;
8331;SDS011;4203;48.144;14.118;2022-09-09T04:24:37;3.72;;;3.42;;
8331;SDS011;4203;48.144;14.118;2022-09-09T04:27:06;3.25;;;3.05;;
8331;SDS011;4203;48.144;14.118;2022-09-09T04:29:33;4.88;;;3.80;;
8331;SDS011;4203;48.144;14.118;2022-09-09T04:32:00;3.50;;;3.17;;
8331;SDS011;4203;48.144;14.118;2022-09-09T04:34:28;3.80;;;3.42;;
8331;SDS011;4203;48.144;14.118;2022-09-09T04:36:55;3.80;;;3.53;;
8331;SDS011;4203;48.144;14.118;2022-09-09T04:39:22;3.35;;;3.15;;
8331;SDS011;4203;48.144;14.118;2022-09-09T04:41:50;3.55;;;3.10;;
8331;SDS011;4203;48.144;14.118;2022-09-09T04:44:18;4.20;;;3.80;;
8331;SDS011;4203;48.144;14.118;2022-09-09T04:46:45;4.15;;;3.85;;
8331;SDS011;4203;48.144;14.118;2022-09-09T04:49:12;3.80;;;3.50;;
8331;SDS011;4203;48.144;14.118;2022-09-09T04:51:40;3.67;;;3.45;;
8331;SDS011;4203;48.144;14.118;2022-09-09T04:54:07;5.43;;;4.03;;
8331;SDS011;4203;48.144;14.118;2022-09-09T04:56:35;7.25;;;4.30;;
8331;SDS011;4203;48.144;14.118;2022-09-09T04:59:02;6.43;;;4.07;;
8331;SDS011;4203;48.144;14.118;2022-09-09T05:01:32;4.22;;;3.92;;
8331;SDS011;4203;48.144;14.118;2022-09-09T05:03:59;4.32;;;4.03;;
8331;SDS011;4203;48.144;14.118;2022-09-09T05:06:27;3.90;;;3.60;;
8331;SDS011;4203;48.144;14.118;2022-09-09T05:08:56;3.85;;;3.50;;
8331;SDS011;4203;48.144;14.118;2022-09-09T05:11:24;4.10;;;3.83;;
8331;SDS011;4203;48.144;14.118;2022-09-09T05:13:53;4.68;;;4.28;;
8331;SDS011;4203;48.144;14.118;2022-09-09T05:16:21;4.30;;;3.90;;
8331;SDS011;4203;48.144;14.118;2022-09-09T05:18:50;4.00;;;3.72;;
8331;SDS011;4203;48.144;14.118;2022-09-09T05:21:18;3.85;;;3.58;;
8331;SDS011;4203;48.144;14.118;2022-09-09T05:23:47;3.85;;;3.65;;
8331;SDS011;4203;48.144;14.118;2022-09-09T05:26:14;5.50;;;4.18;;
8331;SDS011;4203;48.144;14.118;2022-09-09T05:28:42;4.38;;;4.07;;
8331;SDS011;4203;48.144;14.118;2022-09-09T05:31:10;7.45;;;3.65;;
8331;SDS011;4203;48.144;14.118;2022-09-09T05:33:39;4.03;;;3.72;;
8331;SDS011;4203;48.144;14.118;2022-09-09T05:36:10;4.32;;;4.03;;
8331;SDS011;4203;48.144;14.118;2022-09-09T05:38:39;5.85;;;3.97;;
8331;SDS011;4203;48.144;14.118;2022-09-09T05:41:07;4.22;;;3.92;;
8331;SDS011;4203;48.144;14.118;2022-09-09T05:43:36;5.22;;;3.92;;
8331;SDS011;4203;48.144;14.118;2022-09-09T05:46:04;4.03;;;3.83;;
8331;SDS011;4203;48.144;14.118;2022-09-09T05:48:33;4.55;;;4.15;;
8331;SDS011;4203;48.144;14.118;2022-09-09T05:51:02;6.47;;;4.13;;
8331;SDS011;4203;48.144;14.118;2022-09-09T05:53:33;5.45;;;4.95;;
8331;SDS011;4203;48.144;14.118;2022-09-09T05:56:01;5.22;;;4.78;;
8331;SDS011;4203;48.144;14.118;2022-09-09T05:58:30;5.50;;;5.10;;
8331;SDS011;4203;48.144;14.118;2022-09-09T06:01:00;5.20;;;4.80;;
8331;SDS011;4203;48.144;14.118;2022-09-09T06:03:29;5.80;;;5.40;;
8331;SDS011;4203;48.144;14.118;2022-09-09T06:05:57;5.22;;;4.82;;
8331;SDS011;4203;48.144;14.118;2022-09-09T06:08:25;5.32;;;4.88;;
8331;SDS011;4203;48.144;14.118;2022-09-09T06:11:00;5.05;;;4.65;;
8331;SDS011;4203;48.144;14.118;2022-09-09T06:13:29;4.78;;;4.20;;
8331;SDS011;4203;48.144;14.118;2022-09-09T06:15:57;4.75;;;4.35;;
8331;SDS011;4203;48.144;14.118;2022-09-09T06:18:24;4.70;;;4.32;;
8331;SDS011;4203;48.144;14.118;2022-09-09T06:20:55;4.72;;;4.40;;
8331;SDS011;4203;48.144;14.118;2022-09-09T06:23:23;4.57;;;4.18;;
8331;SDS011;4203;48.144;14.118;2022-09-09T06:25:51;4.40;;;4.10;;
8331;SDS011;4203;48.144;14.118;2022-09-09T06:28:28;6.43;;;4.10;;
8331;SDS011;4203;48.144;14.118;2022-09-09T06:30:57;3.85;;;3.55;;
8331;SDS011;4203;48.144;14.118;2022-09-09T06:33:25;3.90;;;3.53;;
8331;SDS011;4203;48.144;14.118;2022-09-09T06:35:57;4.75;;;4.03;;
8331;SDS011;4203;48.144;14.118;2022-09-09T06:38:24;3.83;;;3.53;;
8331;SDS011;4203;48.144;14.118;2022-09-09T06:40:52;5.15;;;3.95;;
8331;SDS011;4203;48.144;14.118;2022-09-09T06:43:21;4.30;;;4.00;;
8331;SDS011;4203;48.144;14.118;2022-09-09T06:45:56;4.82;;;4.43;;
8331;SDS011;4203;48.144;14.118;2022-09-09T06:48:25;4.80;;;4.50;;
8331;SDS011;4203;48.144;14.118;2022-09-09T06:50:59;4.75;;;4.40;;
8331;SDS011;4203;48.144;14.118;2022-09-09T06:53:27;5.70;;;5.20;;
8331;SDS011;4203;48.144;14.118;2022-09-09T06:55:55;4.05;;;3.72;;
8331;SDS011;4203;48.144;14.118;2022-09-09T06:58:22;3.55;;;3.35;;
8331;SDS011;4203;48.144;14.118;2022-09-09T07:00:49;4.60;;;3.30;;
8331;SDS011;4203;48.144;14.118;2022-09-09T07:03:18;3.75;;;2.70;;
8331;SDS011;4203;48.144;14.118;2022-09-09T07:05:53;2.85;;;2.65;;
8331;SDS011;4203;48.144;14.118;2022-09-09T07:08:21;2.63;;;2.42;;
8331;SDS011;4203;48.144;14.118;2022-09-09T07:10:49;4.00;;;3.70;;
8331;SDS011;4203;48.144;14.118;2022-09-09T07:13:19;4.45;;;4.07;;
8331;SDS011;4203;48.144;14.118;2022-09-09T07:15:50;4.25;;;4.03;;
8331;SDS011;4203;48.144;14.118;2022-09-09T07:18:18;4.35;;;4.05;;
8331;SDS011;4203;48.144;14.118;2022-09-09T07:20:52;4.45;;;4.15;;
8331;SDS011;4203;48.144;14.118;2022-09-09T07:23:21;3.85;;;3.65;;
8331;SDS011;4203;48.144;14.118;2022-09-09T07:25:48;4.35;;;3.97;;
8331;SDS011;4203;48.144;14.118;2022-09-09T07:28:15;4.28;;;3.97;;
8331;SDS011;4203;48.144;14.118;2022-09-09T07:30:42;4.25;;;3.85;;
8331;SDS011;4203;48.144;14.118;2022-09-09T07:33:10;4.20;;;3.92;;
8331;SDS011;4203;48.144;14.118;2022-09-09T07:35:38;4.88;;;4.22;;
8331;SDS011;4203;48.144;14.118;2022-09-09T07:38:07;3.80;;;3.50;;
8331;SDS011;4203;48.144;14.118;2022-09-09T07:40:34;3.47;;;3.13;;
8331;SDS011;4203;48.144;14.118;2022-09-09T07:43:02;3.60;;;3.40;;
8331;SDS011;4203;48.144;14.118;2022-09-09T07:45:29;3.80;;;3.60;;
8331;SDS011;4203;48.144;14.118;2022-09-09T07:47:57;3.40;;;3.10;;
8331;SDS011;4203;48.144;14.118;2022-09-09T07:50:24;3.60;;;3.40;;
8331;SDS011;4203;48.144;14.118;2022-09-09T07:52:53;3.13;;;3.00;;
8331;SDS011;4203;48.144;14.118;2022-09-09T07:55:20;3.60;;;3.40;;
8331;SDS011;4203;48.144;14.118;2022-09-09T07:57:50;4.93;;;3.20;;
8331;SDS011;4203;48.144;14.118;2022-09-09T08:00:17;4.20;;;3.42;;
8331;SDS011;4203;48.144;14.118;2022-09-09T08:02:46;4.13;;;2.90;;
8331;SDS011;4203;48.144;14.118;2022-09-09T08:05:14;2.80;;;2.70;;
8331;SDS011;4203;48.144;14.118;2022-09-09T08:07:41;2.88;;;2.67;;
8331;SDS011;4203;48.144;14.118;2022-09-09T08:10:10;5.72;;;2.70;;
8331;SDS011;4203;48.144;14.118;2022-09-09T08:12:39;3.42;;;3.08;;
8331;SDS011;4203;48.144;14.118;2022-09-09T08:15:07;2.75;;;2.55;;
8331;SDS011;4203;48.144;14.118;2022-09-09T08:17:34;4.53;;;3.10;;
8331;SDS011;4203;48.144;14.118;2022-09-09T08:20:03;3.10;;;2.90;;
8331;SDS011;4203;48.144;14.118;2022-09-09T08:22:30;3.30;;;3.00;;
8331;SDS011;4203;48.144;14.118;2022-09-09T08:24:58;3.55;;;3.35;;
8331;SDS011;4203;48.144;14.118;2022-09-09T08:27:26;4.32;;;2.53;;
8331;SDS011;4203;48.144;14.118;2022-09-09T08:29:54;3.13;;;3.00;;
8331;SDS011;4203;48.144;14.118;2022-09-09T08:32:22;2.80;;;2.70;;
8331;SDS011;4203;48.144;14.118;2022-09-09T08:34:49;5.63;;;3.20;;
8331;SDS011;4203;48.144;14.118;2022-09-09T08:37:16;3.55;;;3.33;;
8331;SDS011;4203;48.144;14.118;2022-09-09T08:39:44;3.40;;;3.20;;
8331;SDS011;4203;48.144;14.118;2022-09-09T08:42:19;3.25;;;3.05;;
8331;SDS011;4203;48.144;14.118;2022-09-09T08:45:00;4.20;;;3.85;;
8331;SDS011;4203;48.144;14.118;2022-09-09T08:47:39;3.50;;;3.28;;
8331;SDS011;4203;48.144;14.118;2022-09-09T08:50:19;3.90;;;3.60;;
8331;SDS011;4203;48.144;14.118;2022-09-09T08:52:51;3.35;;;3.03;;
8331;SDS011;4203;48.144;14.118;2022-09-09T08:55:27;3.25;;;2.95;;
8331;SDS011;4203;48.144;14.118;2022-09-09T08:58:04;7.85;;;3.20;;
8331;SDS011;4203;48.144;14.118;2022-09-09T09:00:40;3.40;;;3.10;;
8331;SDS011;4203;48.144;14.118;2022-09-09T09:03:19;4.90;;;3.33;;
8331;SDS011;4203;48.144;14.118;2022-09-09T09:05:56;5.38;;;3.00;;
8331;SDS011;4203;48.144;14.118;2022-09-09T09:08:33;3.42;;;3.15;;
8331;SDS011;4203;48.144;14.118;2022-09-09T09:11:06;3.47;;;3.28;;
8331;SDS011;4203;48.144;14.118;2022-09-09T09:13:40;4.40;;;4.10;;
8331;SDS011;4203;48.144;14.118;2022-09-09T09:16:17;4.72;;;4.30;;
8331;SDS011;4203;48.144;14.118;2022-09-09T09:18:49;4.15;;;3.88;;
8331;SDS011;4203;48.144;14.118;2022-09-09T09:21:19;3.63;;;3.42;;
8331;SDS011;4203;48.144;14.118;2022-09-09T09:23:53;3.45;;;3.25;;
8331;SDS011;4203;48.144;14.118;2022-09-09T09:26:23;4.40;;;3.78;;
8331;SDS011;4203;48.144;14.118;2022-09-09T09:28:55;4.28;;;3.97;;
8331;SDS011;4203;48.144;14.118;2022-09-09T09:31:24;4.53;;;4.13;;
8331;SDS011;4203;48.144;14.118;2022-09-09T09:33:53;3.72;;;3.42;;
8331;SDS011;4203;48.144;14.118;2022-09-09T09:36:22;5.18;;;4.00;;
8331;SDS011;4203;48.144;14.118;2022-09-09T09:38:52;4.25;;;3.95;;
8331;SDS011;4203;48.144;14.118;2022-09-09T09:41:31;4.53;;;4.13;;
8331;SDS011;4203;48.144;14.118;2022-09-09T09:44:03;4.40;;;4.10;;
8331;SDS011;4203;48.144;14.118;2022-09-09T09:46:31;4.57;;;4.18;;
8331;SDS011;4203;48.144;14.118;2022-09-09T09:48:59;4.57;;;3.83;;
8331;SDS011;4203;48.144;14.118;2022-09-09T09:51:28;4.13;;;3.85;;
8331;SDS011;4203;48.144;14.118;2022-09-09T09:54:06;2.88;;;2.67;;
8331;SDS011;4203;48.144;14.118;2022-09-09T09:56:40;3.80;;;3.50;;
8331;SDS011;4203;48.144;14.118;2022-09-09T09:59:20;4.05;;;3.78;;
8331;SDS011;4203;48.144;14.118;2022-09-09T10:01:49;4.25;;;3.95;;
8331;SDS011;4203;48.144;14.118;2022-09-09T10:04:17;3.90;;;3.60;;
8331;SDS011;4203;48.144;14.118;2022-09-09T10:06:48;2.97;;;2.88;;
8331;SDS011;4203;48.144;14.118;2022-09-09T10:09:20;3.20;;;3.00;;
8331;SDS011;4203;48.144;14.118;2022-09-09T10:11:52;3.40;;;3.20;;
8331;SDS011;4203;48.144;14.118;2022-09-09T10:14:31;3.17;;;2.95;;
8331;SDS011;4203;48.144;14.118;2022-09-09T10:17:16;3.30;;;3.00;;
8331;SDS011;4203;48.144;14.118;2022-09-09T10:19:55;3.47;;;3.28;;
8331;SDS011;4203;48.144;14.118;2022-09-09T10:22:32;6.90;;;6.30;;
8331;SDS011;4203;48.144;14.118;2022-09-09T10:25:13;12.85;;;8.75;;
8331;SDS011;4203;48.144;14.118;2022-09-09T10:30:57;6.03;;;5.20;;
8331;SDS011;4203;48.144;14.118;2022-09-09T10:33:36;5.63;;;5.22;;
8331;SDS011;4203;48.144;14.118;2022-09-09T10:36:13;6.68;;;4.55;;
8331;SDS011;4203;48.144;14.118;2022-09-09T10:38:45;5.00;;;4.70;;
8331;SDS011;4203;48.144;14.118;2022-09-09T10:41:15;6.72;;;5.85;;
8331;SDS011;4203;48.144;14.118;2022-09-09T10:43:55;6.03;;;5.60;;
8331;SDS011;4203;48.144;14.118;2022-09-09T10:46:51;5.70;;;5.30;;
8331;SDS011;4203;48.144;14.118;2022-09-09T10:49:31;7.97;;;5.05;;
8331;SDS011;4203;48.144;14.118;2022-09-09T10:52:15;5.15;;;4.65;;
8331;SDS011;4203;48.144;14.118;2022-09-09T10:54:52;6.88;;;4.47;;
8331;SDS011;4203;48.144;14.118;2022-09-09T10:57:28;4.47;;;4.05;;
8331;SDS011;4203;48.144;14.118;2022-09-09T11:00:03;6.18;;;4.00;;
8331;SDS011;4203;48.144;14.118;2022-09-09T11:02:35;3.33;;;3.13;;
8331;SDS011;4203;48.144;14.118;2022-09-09T11:05:05;3.40;;;3.20;;
8331;SDS011;4203;48.144;14.118;2022-09-09T11:07:40;4.13;;;3.83;;
8331;SDS011;4203;48.144;14.118;2022-09-09T11:10:17;3.70;;;3.40;;
8331;SDS011;4203;48.144;14.118;2022-09-09T11:12:50;3.00;;;2.80;;
8331;SDS011;4203;48.144;14.118;2022-09-09T11:15:23;2.60;;;2.50;;
8331;SDS011;4203;48.144;14.118;2022-09-09T11:17:58;2.92;;;2.72;;
8331;SDS011;4203;48.144;14.118;2022-09-09T11:20:28;4.28;;;3.03;;
8331;SDS011;4203;48.144;14.118;2022-09-09T11:22:55;2.70;;;2.50;;
8331;SDS011;4203;48.144;14.118;2022-09-09T11:25:28;4.18;;;3.00;;
8331;SDS011;4203;48.144;14.118;2022-09-09T11:28:04;3.50;;;3.22;;
8331;SDS011;4203;48.144;14.118;2022-09-09T11:30:45;4.13;;;3.75;;
8331;SDS011;4203;48.144;14.118;2022-09-09T11:33:36;3.92;;;3.00;;
8331;SDS011;4203;48.144;14.118;2022-09-09T11:39:35;5.13;;;3.70;;
8331;SDS011;4203;48.144;14.118;2022-09-09T11:42:25;3.58;;;3.38;;
8331;SDS011;4203;48.144;14.118;2022-09-09T11:44:52;4.07;;;3.78;;
8331;SDS011;4203;48.144;14.118;2022-09-09T11:47:21;3.40;;;3.10;;
8331;SDS011;4203;48.144;14.118;2022-09-09T11:50:06;3.90;;;3.45;;
8331;SDS011;4203;48.144;14.118;2022-09-09T11:52:36;4.57;;;3.33;;
8331;SDS011;4203;48.144;14.118;2022-09-09T11:55:10;3.63;;;3.25;;
8331;SDS011;4203;48.144;14.118;2022-09-09T11:57:56;3.65;;;3.42;;
8331;SDS011;4203;48.144;14.118;2022-09-09T12:00:31;4.15;;;3.95;;
8331;SDS011;4203;48.144;14.118;2022-09-09T12:03:02;4.15;;;3.85;;
8331;SDS011;4203;48.144;14.118;2022-09-09T12:05:37;3.13;;;2.92;;
8331;SDS011;4203;48.144;14.118;2022-09-09T12:08:07;3.75;;;3.55;;
8331;SDS011;4203;48.144;14.118;2022-09-09T12:10:38;4.30;;;3.90;;
8331;SDS011;4203;48.144;14.118;2022-09-09T12:13:15;4.43;;;4.03;;
8331;SDS011;4203;48.144;14.118;2022-09-09T12:15:47;5.35;;;4.85;;
8331;SDS011;4203;48.144;14.118;2022-09-09T12:18:16;9.40;;;5.50;;
8331;SDS011;4203;48.144;14.118;2022-09-09T12:20:52;6.13;;;5.53;;
8331;SDS011;4203;48.144;14.118;2022-09-09T12:23:35;5.90;;;5.40;;
8331;SDS011;4203;48.144;14.118;2022-09-09T12:26:16;7.35;;;6.70;;
8331;SDS011;4203;48.144;14.118;2022-09-09T12:28:55;7.03;;;6.18;;
8331;SDS011;4203;48.144;14.118;2022-09-09T12:31:32;7.57;;;6.82;;
8331;SDS011;4203;48.144;14.118;2022-09-09T12:34:11;7.50;;;6.90;;
8331;SDS011;4203;48.144;14.118;2022-09-09T12:36:43;7.55;;;6.95;;
8331;SDS011;4203;48.144;14.118;2022-09-09T12:39:19;7.40;;;6.80;;
8331;SDS011;4203;48.144;14.118;2022-09-09T12:41:52;6.38;;;5.88;;
8331;SDS011;4203;48.144;14.118;2022-09-09T12:44:23;6.93;;;5.55;;
8331;SDS011;4203;48.144;14.118;2022-09-09T12:46:53;6.93;;;6.40;;
8331;SDS011;4203;48.144;14.118;2022-09-09T12:49:26;6.45;;;5.90;;
8331;SDS011;4203;48.144;14.118;2022-09-09T12:51:57;5.60;;;4.82;;
8331;SDS011;4203;48.144;14.118;2022-09-09T12:54:25;5.25;;;4.72;;
8331;SDS011;4203;48.144;14.118;2022-09-09T12:56:53;5.72;;;5.18;;
8331;SDS011;4203;48.144;14.118;2022-09-09T12:59:22;5.93;;;5.50;;
8331;SDS011;4203;48.144;14.118;2022-09-09T13:01:57;6.13;;;5.00;;
8331;SDS011;4203;48.144;14.118;2022-09-09T13:04:25;5.72;;;5.15;;
8331;SDS011;4203;48.144;14.118;2022-09-09T13:06:52;5.43;;;4.85;;
8331;SDS011;4203;48.144;14.118;2022-09-09T13:09:22;6.15;;;5.35;;
8331;SDS011;4203;48.144;14.118;2022-09-09T13:11:50;7.18;;;5.05;;
8331;SDS011;4203;48.144;14.118;2022-09-09T13:14:22;8.43;;;5.18;;
8331;SDS011;4203;48.144;14.118;2022-09-09T13:16:55;6.13;;;4.60;;
8331;SDS011;4203;48.144;14.118;2022-09-09T13:19:24;4.50;;;4.10;;
8331;SDS011;4203;48.144;14.118;2022-09-09T13:21:54;4.07;;;3.88;;
8331;SDS011;4203;48.144;14.118;2022-09-09T13:24:26;4.28;;;3.88;;
8331;SDS011;4203;48.144;14.118;2022-09-09T13:26:56;7.45;;;4.65;;
8331;SDS011;4203;48.144;14.118;2022-09-09T13:29:25;4.60;;;4.18;;
8331;SDS011;4203;48.144;14.118;2022-09-09T13:31:52;4.43;;;4.13;;
8331;SDS011;4203;48.144;14.118;2022-09-09T13:34:26;4.90;;;4.50;;
8331;SDS011;4203;48.144;14.118;2022-09-09T13:36:57;5.00;;;4.50;;
8331;SDS011;4203;48.144;14.118;2022-09-09T13:39:30;4.47;;;4.18;;
8331;SDS011;4203;48.144;14.118;2022-09-09T13:41:57;5.35;;;4.70;;
8331;SDS011;4203;48.144;14.118;2022-09-09T13:44:25;4.60;;;4.07;;
8331;SDS011;4203;48.144;14.118;2022-09-09T13:47:03;4.35;;;4.00;;
8331;SDS011;4203;48.144;14.118;2022-09-09T13:49:31;3.97;;;3.78;;
8331;SDS011;4203;48.144;14.118;2022-09-09T13:52:03;4.80;;;4.38;;
8331;SDS011;4203;48.144;14.118;2022-09-09T13:54:36;5.53;;;4.60;;
8331;SDS011;4203;48.144;14.118;2022-09-09T13:57:03;4.80;;;4.28;;
8331;SDS011;4203;48.144;14.118;2022-09-09T13:59:31;4.60;;;4.20;;
8331;SDS011;4203;48.144;14.118;2022-09-09T14:01:59;5.80;;;4.97;;
8331;SDS011;4203;48.144;14.118;2022-09-09T14:04:26;4.57;;;4.18;;
8331;SDS011;4203;48.144;14.118;2022-09-09T14:06:54;5.05;;;4.55;;
8331;SDS011;4203;48.144;14.118;2022-09-09T14:09:23;4.82;;;4.45;;
8331;SDS011;4203;48.144;14.118;2022-09-09T14:11:52;4.70;;;4.30;;
8331;SDS011;4203;48.144;14.118;2022-09-09T14:14:20;4.25;;;3.85;;
8331;SDS011;4203;48.144;14.118;2022-09-09T14:16:47;4.85;;;4.43;;
8331;SDS011;4203;48.144;14.118;2022-09-09T14:19:14;4.93;;;4.28;;
8331;SDS011;4203;48.144;14.118;2022-09-09T14:21:41;7.63;;;4.20;;
8331;SDS011;4203;48.144;14.118;2022-09-09T14:24:08;4.65;;;4.25;;
8331;SDS011;4203;48.144;14.118;2022-09-09T14:26:36;4.45;;;4.15;;
8331;SDS011;4203;48.144;14.118;2022-09-09T14:29:05;3.70;;;3.40;;
8331;SDS011;4203;48.144;14.118;2022-09-09T14:31:32;4.13;;;3.90;;
8331;SDS011;4203;48.144;14.118;2022-09-09T14:33:59;4.18;;;3.83;;
8331;SDS011;4203;48.144;14.118;2022-09-09T14:36:26;4.50;;;4.10;;
8331;SDS011;4203;48.144;14.118;2022-09-09T14:38:53;4.82;;;4.45;;
8331;SDS011;4203;48.144;14.118;2022-09-09T14:41:21;6.60;;;4.47;;
8331;SDS011;4203;48.144;14.118;2022-09-09T14:43:48;4.55;;;4.15;;
8331;SDS011;4203;48.144;14.118;2022-09-09T14:46:19;3.78;;;3.40;;
8331;SDS011;4203;48.144;14.118;2022-09-09T14:48:46;3.92;;;3.63;;
8331;SDS011;4203;48.144;14.118;2022-09-09T14:51:15;4.22;;;3.90;;
8331;SDS011;4203;48.144;14.118;2022-09-09T14:53:44;6.25;;;4.32;;
8331;SDS011;4203;48.144;14.118;2022-09-09T14:56:13;4.22;;;3.83;;
8331;SDS011;4203;48.144;14.118;2022-09-09T14:58:42;4.15;;;3.80;;
8331;SDS011;4203;48.144;14.118;2022-09-09T15:01:09;4.30;;;3.92;;
8331;SDS011;4203;48.144;14.118;2022-09-09T15:03:40;4.10;;;3.80;;
8331;SDS011;4203;48.144;14.118;2022-09-09T15:06:09;4.07;;;3.80;;
8331;SDS011;4203;48.144;14.118;2022-09-09T15:08:39;4.05;;;3.75;;
8331;SDS011;4203;48.144;14.118;2022-09-09T15:11:08;4.38;;;4.05;;
8331;SDS011;4203;48.144;14.118;2022-09-09T15:13:36;3.67;;;3.40;;
8331;SDS011;4203;48.144;14.118;2022-09-09T15:16:05;4.47;;;4.03;;
8331;SDS011;4203;48.144;14.118;2022-09-09T15:18:33;4.40;;;4.03;;
8331;SDS011;4203;48.144;14.118;2022-09-09T15:21:03;3.90;;;3.60;;
8331;SDS011;4203;48.144;14.118;2022-09-09T15:23:31;4.38;;;4.07;;
8331;SDS011;4203;48.144;14.118;2022-09-09T15:25:58;4.15;;;3.90;;
8331;SDS011;4203;48.144;14.118;2022-09-09T15:28:25;4.05;;;3.70;;
8331;SDS011;4203;48.144;14.118;2022-09-09T15:30:53;4.00;;;3.70;;
8331;SDS011;4203;48.144;14.118;2022-09-09T15:33:21;4.10;;;3.17;;